Olmida — ZCNU4 — position and weather

sailwx.info

Track history (hours):
 
Tides and Currents Weather Stations Pressure Air Temp Water Temp Dewpoint Dewpoint Depression Visibility Wind Speed Wind Dir Waves Ship Positions

Olmida

Last reported at 2017-Jun-25 20:14 UTC. Time now 2017-Jun-25 22:26 UTC.
Position N 38°58' E 001°15'.

Type: Pleasure craft. MMSI: 319196000.

Date/timePositionNaut miles runAvg speedWind from/ knotsBaromVisibWave heightAir tempDewpointWater temp
2017-Jun-25 20:14N 38°58' E 001°15'0 0.0
2017-Jun-25 03:35N 38°58' E 001°15'0 0.1
2017-Jun-25 03:29N 38°58' E 001°15'0 0.0
2017-Jun-24 15:23N 38°58' E 001°15'0 0.1
2017-Jun-24 14:58N 38°58' E 001°15'0 0.0
2017-Jun-24 13:47N 38°58' E 001°15'0 0.0
2017-Jun-24 13:25N 38°58' E 001°15'0 0.0
2017-Jun-24 12:59N 38°58' E 001°15'0 0.0
2017-Jun-24 11:25N 38°58' E 001°15'0 0.0
2017-Jun-24 10:55N 38°58' E 001°15'0 0.0
2017-Jun-24 10:05N 38°58' E 001°15'0 0.1
2017-Jun-24 09:57N 38°58' E 001°15'0 0.0
2017-Jun-23 12:41N 38°58' E 001°15'0 0.0
2017-Jun-23 10:30N 38°58' E 001°15'0 0.0
2017-Jun-23 09:59N 38°58' E 001°15'0 0.0
2017-Jun-23 09:30N 38°58' E 001°15'0 0.0
2017-Jun-23 08:58N 38°58' E 001°15'2 4.0
2017-Jun-23 08:25N 38°60' E 001°13'613.7
2017-Jun-23 08:00N 38°54' E 001°12'5 9.9
2017-Jun-23 07:30N 38°51' E 001°16'510.5
2017-Jun-23 06:59N 38°50' E 001°23'0 0.1
2017-Jun-23 06:22N 38°50' E 001°23'0 0.0
2017-Jun-23 06:00N 38°50' E 001°23'0 0.0
2017-Jun-23 05:28N 38°50' E 001°23'0 0.0
2017-Jun-23 04:39N 38°50' E 001°23'0 0.0
2017-Jun-23 04:22N 38°50' E 001°23'0 0.0
2017-Jun-23 04:00N 38°50' E 001°23'0 0.0
2017-Jun-23 03:30N 38°50' E 001°23'0 0.0
2017-Jun-23 03:00N 38°50' E 001°23'0 0.0
2017-Jun-23 02:26N 38°50' E 001°23'0 0.0
2017-Jun-23 02:00N 38°50' E 001°23'0 0.0
2017-Jun-23 01:30N 38°50' E 001°23'0 0.0
2017-Jun-23 00:52N 38°50' E 001°23'0 0.0
2017-Jun-23 00:30N 38°50' E 001°23'0 0.0
2017-Jun-23 00:00N 38°50' E 001°23'0 0.0
2017-Jun-22 23:24N 38°50' E 001°23'0 0.0
2017-Jun-22 23:00N 38°50' E 001°23'0 0.0
2017-Jun-22 22:30N 38°50' E 001°23'0 0.0
2017-Jun-22 22:00N 38°50' E 001°23'0 0.0
2017-Jun-22 21:30N 38°50' E 001°23'0 0.0
2017-Jun-22 20:58N 38°50' E 001°23'0 0.0
2017-Jun-22 20:30N 38°50' E 001°23'0 0.0
2017-Jun-22 19:42N 38°50' E 001°23'0 0.0
2017-Jun-22 19:30N 38°50' E 001°23'0 0.0
2017-Jun-22 18:52N 38°50' E 001°23'0 0.0
2017-Jun-22 18:30N 38°50' E 001°23'5 7.0
2017-Jun-22 17:50N 38°46' E 001°25'1 2.6
2017-Jun-22 17:26N 38°45' E 001°26'0 0.0
2017-Jun-22 16:59N 38°45' E 001°26'0 0.0
2017-Jun-22 16:30N 38°45' E 001°26'0 0.0
2017-Jun-22 16:00N 38°45' E 001°26'0 0.0
2017-Jun-22 15:30N 38°45' E 001°26'0 0.0
2017-Jun-22 15:00N 38°45' E 001°26'0 0.0
2017-Jun-22 14:25N 38°45' E 001°26'0 0.0
2017-Jun-22 13:30N 38°45' E 001°26'0 0.0
2017-Jun-22 13:00N 38°45' E 001°26'0 0.0
2017-Jun-22 12:30N 38°45' E 001°26'0 0.0
2017-Jun-22 12:00N 38°45' E 001°26'0 0.0
2017-Jun-22 11:23N 38°45' E 001°26'0 0.0
2017-Jun-22 11:00N 38°45' E 001°26'0 0.0
2017-Jun-22 10:30N 38°45' E 001°26'0 0.0
2017-Jun-22 10:00N 38°45' E 001°26'0 0.0
2017-Jun-22 09:30N 38°45' E 001°26'0 0.0
2017-Jun-22 09:00N 38°45' E 001°26'0 0.0
2017-Jun-22 08:30N 38°45' E 001°26'0 0.0
2017-Jun-22 08:00N 38°45' E 001°26'0 0.0
2017-Jun-22 07:30N 38°45' E 001°26'0 0.0
2017-Jun-22 06:45N 38°45' E 001°26'0 0.0
2017-Jun-22 06:29N 38°45' E 001°26'0 0.0
2017-Jun-22 05:38N 38°45' E 001°26'0 0.0
2017-Jun-22 05:24N 38°45' E 001°26'0 0.0
2017-Jun-22 05:00N 38°45' E 001°26'0 0.0
2017-Jun-22 04:18N 38°45' E 001°26'0 0.0
2017-Jun-22 02:30N 38°45' E 001°26'0 0.0
2017-Jun-22 02:00N 38°45' E 001°26'0 0.0
2017-Jun-22 01:24N 38°45' E 001°26'0 0.0
2017-Jun-22 00:59N 38°45' E 001°26'0 0.0
2017-Jun-21 23:40N 38°45' E 001°26'0 0.0
2017-Jun-21 23:28N 38°45' E 001°26'0 0.0
2017-Jun-21 23:00N 38°45' E 001°26'0 0.0
2017-Jun-21 22:30N 38°45' E 001°26'0 0.0
2017-Jun-21 22:00N 38°45' E 001°26'0 0.0
2017-Jun-21 21:30N 38°45' E 001°26'0 0.0
2017-Jun-21 21:00N 38°45' E 001°26'0 0.0
2017-Jun-21 20:29N 38°45' E 001°26'0 0.0
2017-Jun-21 19:47N 38°45' E 001°26'0 0.0
2017-Jun-21 19:30N 38°45' E 001°26'0 0.0
2017-Jun-21 19:00N 38°45' E 001°26'0 0.0
2017-Jun-21 18:15N 38°45' E 001°26'0 0.0
2017-Jun-21 17:48N 38°45' E 001°26'0 0.0
2017-Jun-21 17:28N 38°45' E 001°26'0 0.0
2017-Jun-21 16:57N 38°45' E 001°26'0 0.0
2017-Jun-21 16:30N 38°45' E 001°26'0 0.0
2017-Jun-21 16:00N 38°45' E 001°26'0 0.0
2017-Jun-21 15:20N 38°45' E 001°26'0 0.0
2017-Jun-21 15:00N 38°45' E 001°26'0 0.0
2017-Jun-21 14:29N 38°45' E 001°26'0 0.0
2017-Jun-21 13:30N 38°45' E 001°26'0 0.0
2017-Jun-21 13:00N 38°45' E 001°26'0 0.0
2017-Jun-21 12:30N 38°45' E 001°26'0 0.0
2017-Jun-21 11:59N 38°45' E 001°26'0 0.0
2017-Jun-21 11:30N 38°45' E 001°26'0 0.0
2017-Jun-21 10:59N 38°45' E 001°26'0 0.0
2017-Jun-21 10:30N 38°45' E 001°26'0 0.0
2017-Jun-21 10:00N 38°45' E 001°26'0 0.0
2017-Jun-21 09:30N 38°45' E 001°26'0 0.0
2017-Jun-21 08:58N 38°45' E 001°26'0 0.0
2017-Jun-21 08:30N 38°45' E 001°26'0 0.0
2017-Jun-21 08:00N 38°45' E 001°26'0 0.0
2017-Jun-21 07:30N 38°45' E 001°26'0 0.0
2017-Jun-21 07:00N 38°45' E 001°26'0 0.0
2017-Jun-21 06:29N 38°45' E 001°26'0 0.0
2017-Jun-21 06:00N 38°45' E 001°26'0 0.0
2017-Jun-21 05:30N 38°45' E 001°26'0 0.0
2017-Jun-21 05:00N 38°45' E 001°26'0 0.0
2017-Jun-21 04:25N 38°45' E 001°26'0 0.0
2017-Jun-21 03:38N 38°45' E 001°26'0 0.0
2017-Jun-21 03:26N 38°45' E 001°26'0 0.0
2017-Jun-21 03:00N 38°45' E 001°26'0 0.0
2017-Jun-21 02:25N 38°45' E 001°26'0 0.0
2017-Jun-21 02:00N 38°45' E 001°26'0 0.0
2017-Jun-21 01:30N 38°45' E 001°26'0 0.0
2017-Jun-21 00:59N 38°45' E 001°26'0 0.0
2017-Jun-21 00:21N 38°45' E 001°26'0 0.0
2017-Jun-21 00:00N 38°45' E 001°26'0 0.0
2017-Jun-20 23:26N 38°45' E 001°26'0 0.0
2017-Jun-20 23:00N 38°45' E 001°26'0 0.0
2017-Jun-20 22:29N 38°45' E 001°26'0 0.0
2017-Jun-20 22:00N 38°45' E 001°26'0 0.0
2017-Jun-20 21:30N 38°45' E 001°26'0 0.0
2017-Jun-20 20:58N 38°45' E 001°26'0 0.0
2017-Jun-20 20:27N 38°45' E 001°26'0 0.0
2017-Jun-20 19:49N 38°45' E 001°26'0 0.0
2017-Jun-20 19:23N 38°45' E 001°26'0 0.0
2017-Jun-20 18:51N 38°45' E 001°26'0 0.0
2017-Jun-20 18:30N 38°45' E 001°26'0 0.0
2017-Jun-20 18:00N 38°45' E 001°26'0 0.0
2017-Jun-20 17:30N 38°45' E 001°26'0 0.0
2017-Jun-20 17:00N 38°45' E 001°26'0 0.0
2017-Jun-20 16:29N 38°45' E 001°26'0 0.0
2017-Jun-20 16:00N 38°45' E 001°26'0 0.0
2017-Jun-20 15:30N 38°45' E 001°26'0 0.0
2017-Jun-20 14:56N 38°45' E 001°26'0 0.0
2017-Jun-20 14:14N 38°45' E 001°26'0 0.0
2017-Jun-20 13:21N 38°45' E 001°26'0 0.0
2017-Jun-20 13:00N 38°45' E 001°26'0 0.0
2017-Jun-20 12:27N 38°45' E 001°26'0 0.0
2017-Jun-20 12:00N 38°45' E 001°26'0 0.0
2017-Jun-20 11:30N 38°45' E 001°26'0 0.0
2017-Jun-20 11:00N 38°45' E 001°26'0 0.0
2017-Jun-20 10:30N 38°45' E 001°26'0 0.0
2017-Jun-20 09:41N 38°45' E 001°26'0 0.0
2017-Jun-20 09:30N 38°45' E 001°26'0 0.0
2017-Jun-20 08:59N 38°45' E 001°26'0 0.0
2017-Jun-20 08:21N 38°45' E 001°26'6 7.3
2017-Jun-20 07:35N 38°50' E 001°23'0 0.0
2017-Jun-20 07:21N 38°50' E 001°23'0 0.0
2017-Jun-20 06:59N 38°50' E 001°23'0 0.0
2017-Jun-20 06:30N 38°50' E 001°23'0 0.0
2017-Jun-20 06:00N 38°50' E 001°23'0 0.0
2017-Jun-20 05:30N 38°50' E 001°23'0 0.0
2017-Jun-20 05:00N 38°50' E 001°23'0 0.0
2017-Jun-20 04:29N 38°50' E 001°23'0 0.0
2017-Jun-20 03:59N 38°50' E 001°23'0 0.0
2017-Jun-20 03:08N 38°50' E 001°23'0 0.0
2017-Jun-20 02:59N 38°50' E 001°23'0 0.0
2017-Jun-20 02:23N 38°50' E 001°23'0 0.0
2017-Jun-20 01:57N 38°50' E 001°23'0 0.0
2017-Jun-20 01:29N 38°50' E 001°23'0 0.0
2017-Jun-20 01:00N 38°50' E 001°23'0 0.0
2017-Jun-20 00:30N 38°50' E 001°23'0 0.0
2017-Jun-19 23:58N 38°50' E 001°23'0 0.0
2017-Jun-19 23:07N 38°50' E 001°23'0 0.0
2017-Jun-19 22:55N 38°50' E 001°23'0 0.0
2017-Jun-19 22:27N 38°50' E 001°23'0 0.0
2017-Jun-19 22:00N 38°50' E 001°23'0 0.0
2017-Jun-19 20:50N 38°50' E 001°23'0 0.0
2017-Jun-19 20:20N 38°50' E 001°23'0 0.0
2017-Jun-19 19:59N 38°50' E 001°23'0 0.0
2017-Jun-19 19:30N 38°50' E 001°23'0 0.0
2017-Jun-19 19:00N 38°50' E 001°23'0 0.0
2017-Jun-19 18:30N 38°50' E 001°23'0 0.0
2017-Jun-19 17:59N 38°50' E 001°23'0 0.0
2017-Jun-19 17:29N 38°50' E 001°23'0 0.0
2017-Jun-19 16:59N 38°50' E 001°23'0 0.0
2017-Jun-19 16:06N 38°50' E 001°23'0 0.0
2017-Jun-19 15:54N 38°50' E 001°23'0 0.0
2017-Jun-19 15:29N 38°50' E 001°23'0 0.0
2017-Jun-19 14:57N 38°50' E 001°23'0 0.0
2017-Jun-19 14:21N 38°50' E 001°23'0 0.0
2017-Jun-19 13:24N 38°50' E 001°23'0 0.0
2017-Jun-19 12:39N 38°50' E 001°23'0 0.0
2017-Jun-19 11:19N 38°50' E 001°23'0 0.0
2017-Jun-19 10:59N 38°50' E 001°23'0 0.0
2017-Jun-19 09:46N 38°50' E 001°23'0 0.0
2017-Jun-19 09:24N 38°50' E 001°23'0 0.0
2017-Jun-19 08:58N 38°50' E 001°23'0 0.0
2017-Jun-19 08:29N 38°50' E 001°23'0 0.0
2017-Jun-19 07:48N 38°50' E 001°23'0 0.0
2017-Jun-19 07:30N 38°50' E 001°23'0 0.0
2017-Jun-19 07:00N 38°50' E 001°23'0 0.0
2017-Jun-19 06:27N 38°50' E 001°23'0 0.0
2017-Jun-19 05:46N 38°50' E 001°23'0 0.0
2017-Jun-19 05:30N 38°50' E 001°23'0 0.0
2017-Jun-19 04:49N 38°50' E 001°23'0 0.0
2017-Jun-19 04:26N 38°50' E 001°23'0 0.0
2017-Jun-19 03:58N 38°50' E 001°23'0 0.0
2017-Jun-19 03:15N 38°50' E 001°23'0 0.0
2017-Jun-19 02:59N 38°50' E 001°23'0 0.0
2017-Jun-19 02:29N 38°50' E 001°23'0 0.0
2017-Jun-19 02:00N 38°50' E 001°23'0 0.0
2017-Jun-19 01:30N 38°50' E 001°23'0 0.0
2017-Jun-19 00:54N 38°50' E 001°23'0 0.0
2017-Jun-19 00:25N 38°50' E 001°23'0 0.0
2017-Jun-18 23:52N 38°50' E 001°23'0 0.0
2017-Jun-18 23:28N 38°50' E 001°23'0 0.0
2017-Jun-18 22:58N 38°50' E 001°23'0 0.0
2017-Jun-18 22:26N 38°50' E 001°23'0 0.0
2017-Jun-18 22:00N 38°50' E 001°23'0 0.0
2017-Jun-18 21:30N 38°50' E 001°23'0 0.0
2017-Jun-18 21:00N 38°50' E 001°23'0 0.0
2017-Jun-18 20:18N 38°50' E 001°23'0 0.0
2017-Jun-18 19:59N 38°50' E 001°23'0 0.0
2017-Jun-18 19:24N 38°50' E 001°23'0 0.0
2017-Jun-18 18:57N 38°50' E 001°23'0 0.0
2017-Jun-18 18:30N 38°50' E 001°23'0 0.0
2017-Jun-18 17:58N 38°50' E 001°23'0 0.0
2017-Jun-18 17:30N 38°50' E 001°23'0 0.0
2017-Jun-18 17:00N 38°50' E 001°23'0 0.0
2017-Jun-18 16:30N 38°50' E 001°23'0 0.0
2017-Jun-18 16:00N 38°50' E 001°23'0 0.0
2017-Jun-18 15:30N 38°50' E 001°23'0 0.0
2017-Jun-18 15:00N 38°50' E 001°23'0 0.0
2017-Jun-18 14:00N 38°50' E 001°23'0 0.0
2017-Jun-18 13:30N 38°50' E 001°23'0 0.0
2017-Jun-18 13:00N 38°50' E 001°23'0 0.0
2017-Jun-18 12:30N 38°50' E 001°23'0 0.0
2017-Jun-18 11:59N 38°50' E 001°23'0 0.0
2017-Jun-18 11:30N 38°50' E 001°23'0 0.0
2017-Jun-18 10:59N 38°50' E 001°23'0 0.0
2017-Jun-18 10:27N 38°50' E 001°23'0 0.0
2017-Jun-18 10:00N 38°50' E 001°23'0 0.0
2017-Jun-18 09:29N 38°50' E 001°23'0 0.0
2017-Jun-18 09:00N 38°50' E 001°23'0 0.0
2017-Jun-18 08:30N 38°50' E 001°23'0 0.0
2017-Jun-18 08:00N 38°50' E 001°23'0 0.0
2017-Jun-18 07:26N 38°50' E 001°23'0 0.0
2017-Jun-18 06:54N 38°50' E 001°23'0 0.0
2017-Jun-18 06:29N 38°50' E 001°23'0 0.0
2017-Jun-18 05:58N 38°50' E 001°23'0 0.0
2017-Jun-18 05:29N 38°50' E 001°23'0 0.0
2017-Jun-18 05:00N 38°50' E 001°23'0 0.0
2017-Jun-18 04:28N 38°50' E 001°23'0 0.0
2017-Jun-18 04:00N 38°50' E 001°23'0 0.0
2017-Jun-18 03:30N 38°50' E 001°23'0 0.0
2017-Jun-18 03:00N 38°50' E 001°23'0 0.0
2017-Jun-18 02:15N 38°50' E 001°23'0 0.0
2017-Jun-18 02:00N 38°50' E 001°23'0 0.0
2017-Jun-18 01:30N 38°50' E 001°23'0 0.0
2017-Jun-18 00:55N 38°50' E 001°23'0 0.0
2017-Jun-18 00:30N 38°50' E 001°23'0 0.0
2017-Jun-18 00:00N 38°50' E 001°23'0 0.0
2017-Jun-17 23:30N 38°50' E 001°23'0 0.0
2017-Jun-17 23:00N 38°50' E 001°23'0 0.0
2017-Jun-17 22:30N 38°50' E 001°23'0 0.0
2017-Jun-17 21:59N 38°50' E 001°23'0 0.0
2017-Jun-17 21:30N 38°50' E 001°23'0 0.0
2017-Jun-17 21:00N 38°50' E 001°23'0 0.0
2017-Jun-17 20:27N 38°50' E 001°23'0 0.0
2017-Jun-17 20:00N 38°50' E 001°23'0 0.0
2017-Jun-17 19:30N 38°50' E 001°23'0 0.0
2017-Jun-17 19:00N 38°50' E 001°23'5 5.7
2017-Jun-17 18:02N 38°45' E 001°26'0 1.6
2017-Jun-17 18:00N 38°45' E 001°26'0 0.0
2017-Jun-17 17:30N 38°45' E 001°26'0 0.0
2017-Jun-17 17:00N 38°45' E 001°26'0 0.0
2017-Jun-17 16:28N 38°45' E 001°26'0 0.0
2017-Jun-17 16:00N 38°45' E 001°26'0 0.0
2017-Jun-17 15:29N 38°45' E 001°26'0 0.0
2017-Jun-17 15:00N 38°45' E 001°26'0 0.0
2017-Jun-17 14:23N 38°45' E 001°26'0 0.0
2017-Jun-17 10:17N 38°45' E 001°26'0 0.0
2017-Jun-17 09:52N 38°45' E 001°26'0 0.0
2017-Jun-17 09:27N 38°45' E 001°26'0 0.0
2017-Jun-17 07:54N 38°45' E 001°26'2 5.5
2017-Jun-17 07:28N 38°47' E 001°24'3 6.1
2017-Jun-17 07:00N 38°50' E 001°23'0 0.6
2017-Jun-17 06:30N 38°50' E 001°23'0 0.0
2017-Jun-17 06:00N 38°50' E 001°23'0 0.0
2017-Jun-17 02:32N 38°50' E 001°23'0 0.0
2017-Jun-17 02:26N 38°50' E 001°23'0 0.0
2017-Jun-17 02:00N 38°50' E 001°23'0 0.0
2017-Jun-16 22:10N 38°50' E 001°23'0 0.0
2017-Jun-16 21:45N 38°50' E 001°23'0 0.0
2017-Jun-16 21:30N 38°50' E 001°23'0 0.0
2017-Jun-16 21:00N 38°50' E 001°23'0 0.0
2017-Jun-16 20:29N 38°50' E 001°23'0 0.0
2017-Jun-16 19:12N 38°50' E 001°23'0 0.1
2017-Jun-16 18:59N 38°50' E 001°23'0 0.0
2017-Jun-16 18:24N 38°50' E 001°23'0 0.0
2017-Jun-16 17:59N 38°50' E 001°23'0 0.0
2017-Jun-16 17:30N 38°50' E 001°23'0 0.0
2017-Jun-16 16:51N 38°50' E 001°23'0 0.0
2017-Jun-16 16:30N 38°50' E 001°23'0 0.0
2017-Jun-16 15:59N 38°50' E 001°23'0 0.0
2017-Jun-16 15:27N 38°50' E 001°23'0 0.0
2017-Jun-16 13:40N 38°50' E 001°23'0 0.0
2017-Jun-16 13:04N 38°50' E 001°23'0 0.0
2017-Jun-16 12:42N 38°50' E 001°23'0 0.0
2017-Jun-16 12:29N 38°50' E 001°23'0 0.0
2017-Jun-16 11:54N 38°50' E 001°23'0 0.0
2017-Jun-16 11:25N 38°50' E 001°23'0 0.0
2017-Jun-16 11:00N 38°50' E 001°23'0 0.0
2017-Jun-16 10:27N 38°50' E 001°23'0 0.0
2017-Jun-16 10:00N 38°50' E 001°23'0 0.0
2017-Jun-16 09:30N 38°50' E 001°23'0 0.0
2017-Jun-16 09:00N 38°50' E 001°23'0 0.0
2017-Jun-16 08:30N 38°50' E 001°23'0 0.9
2017-Jun-16 08:00N 38°50' E 001°23'3 0.8
2017-Jun-16 03:35N 38°52' E 001°19'0 0.0
2017-Jun-16 03:12N 38°52' E 001°19'0 0.0
2017-Jun-16 02:47N 38°52' E 001°19'0 0.0
2017-Jun-16 02:30N 38°52' E 001°19'0 0.0
2017-Jun-15 22:53N 38°52' E 001°19'0 0.0
2017-Jun-15 22:28N 38°52' E 001°19'  
Track history (hours):
 
Tides and Currents Weather Stations Pressure Air Temp Water Temp Dewpoint Dewpoint Depression Visibility Wind Speed Wind Dir Waves Ship Positions

Olmida

Last reported at 2017-Jun-25 20:14 UTC. Time now 2017-Jun-25 22:26 UTC.
Position N 38°58' E 001°15'.

Type: Pleasure craft. MMSI: 319196000.

Date/timePositionNaut miles runAvg speedWind from/ knotsBaromVisibWave heightAir tempDewpointWater temp
2017-Jun-25 20:14N 38°58' E 001°15'0 0.0
2017-Jun-25 03:35N 38°58' E 001°15'0 0.1
2017-Jun-25 03:29N 38°58' E 001°15'0 0.0
2017-Jun-24 15:23N 38°58' E 001°15'0 0.1
2017-Jun-24 14:58N 38°58' E 001°15'0 0.0
2017-Jun-24 13:47N 38°58' E 001°15'0 0.0
2017-Jun-24 13:25N 38°58' E 001°15'0 0.0
2017-Jun-24 12:59N 38°58' E 001°15'0 0.0
2017-Jun-24 11:25N 38°58' E 001°15'0 0.0
2017-Jun-24 10:55N 38°58' E 001°15'0 0.0
2017-Jun-24 10:05N 38°58' E 001°15'0 0.1
2017-Jun-24 09:57N 38°58' E 001°15'0 0.0
2017-Jun-23 12:41N 38°58' E 001°15'0 0.0
2017-Jun-23 10:30N 38°58' E 001°15'0 0.0
2017-Jun-23 09:59N 38°58' E 001°15'0 0.0
2017-Jun-23 09:30N 38°58' E 001°15'0 0.0
2017-Jun-23 08:58N 38°58' E 001°15'2 4.0
2017-Jun-23 08:25N 38°60' E 001°13'613.7
2017-Jun-23 08:00N 38°54' E 001°12'5 9.9
2017-Jun-23 07:30N 38°51' E 001°16'510.5
2017-Jun-23 06:59N 38°50' E 001°23'0 0.1
2017-Jun-23 06:22N 38°50' E 001°23'0 0.0
2017-Jun-23 06:00N 38°50' E 001°23'0 0.0
2017-Jun-23 05:28N 38°50' E 001°23'0 0.0
2017-Jun-23 04:39N 38°50' E 001°23'0 0.0
2017-Jun-23 04:22N 38°50' E 001°23'0 0.0
2017-Jun-23 04:00N 38°50' E 001°23'0 0.0
2017-Jun-23 03:30N 38°50' E 001°23'0 0.0
2017-Jun-23 03:00N 38°50' E 001°23'0 0.0
2017-Jun-23 02:26N 38°50' E 001°23'0 0.0
2017-Jun-23 02:00N 38°50' E 001°23'0 0.0
2017-Jun-23 01:30N 38°50' E 001°23'0 0.0
2017-Jun-23 00:52N 38°50' E 001°23'0 0.0
2017-Jun-23 00:30N 38°50' E 001°23'0 0.0
2017-Jun-23 00:00N 38°50' E 001°23'0 0.0
2017-Jun-22 23:24N 38°50' E 001°23'0 0.0
2017-Jun-22 23:00N 38°50' E 001°23'0 0.0
2017-Jun-22 22:30N 38°50' E 001°23'0 0.0
2017-Jun-22 22:00N 38°50' E 001°23'0 0.0
2017-Jun-22 21:30N 38°50' E 001°23'0 0.0
2017-Jun-22 20:58N 38°50' E 001°23'0 0.0
2017-Jun-22 20:30N 38°50' E 001°23'0 0.0
2017-Jun-22 19:42N 38°50' E 001°23'0 0.0
2017-Jun-22 19:30N 38°50' E 001°23'0 0.0
2017-Jun-22 18:52N 38°50' E 001°23'0 0.0
2017-Jun-22 18:30N 38°50' E 001°23'5 7.0
2017-Jun-22 17:50N 38°46' E 001°25'1 2.6
2017-Jun-22 17:26N 38°45' E 001°26'0 0.0
2017-Jun-22 16:59N 38°45' E 001°26'0 0.0
2017-Jun-22 16:30N 38°45' E 001°26'0 0.0
2017-Jun-22 16:00N 38°45' E 001°26'0 0.0
2017-Jun-22 15:30N 38°45' E 001°26'0 0.0
2017-Jun-22 15:00N 38°45' E 001°26'0 0.0
2017-Jun-22 14:25N 38°45' E 001°26'0 0.0
2017-Jun-22 13:30N 38°45' E 001°26'0 0.0
2017-Jun-22 13:00N 38°45' E 001°26'0 0.0
2017-Jun-22 12:30N 38°45' E 001°26'0 0.0
2017-Jun-22 12:00N 38°45' E 001°26'0 0.0
2017-Jun-22 11:23N 38°45' E 001°26'0 0.0
2017-Jun-22 11:00N 38°45' E 001°26'0 0.0
2017-Jun-22 10:30N 38°45' E 001°26'0 0.0
2017-Jun-22 10:00N 38°45' E 001°26'0 0.0
2017-Jun-22 09:30N 38°45' E 001°26'0 0.0
2017-Jun-22 09:00N 38°45' E 001°26'0 0.0
2017-Jun-22 08:30N 38°45' E 001°26'0 0.0
2017-Jun-22 08:00N 38°45' E 001°26'0 0.0
2017-Jun-22 07:30N 38°45' E 001°26'0 0.0
2017-Jun-22 06:45N 38°45' E 001°26'0 0.0
2017-Jun-22 06:29N 38°45' E 001°26'0 0.0
2017-Jun-22 05:38N 38°45' E 001°26'0 0.0
2017-Jun-22 05:24N 38°45' E 001°26'0 0.0
2017-Jun-22 05:00N 38°45' E 001°26'0 0.0
2017-Jun-22 04:18N 38°45' E 001°26'0 0.0
2017-Jun-22 02:30N 38°45' E 001°26'0 0.0
2017-Jun-22 02:00N 38°45' E 001°26'0 0.0
2017-Jun-22 01:24N 38°45' E 001°26'0 0.0
2017-Jun-22 00:59N 38°45' E 001°26'0 0.0
2017-Jun-21 23:40N 38°45' E 001°26'0 0.0
2017-Jun-21 23:28N 38°45' E 001°26'0 0.0
2017-Jun-21 23:00N 38°45' E 001°26'0 0.0
2017-Jun-21 22:30N 38°45' E 001°26'0 0.0
2017-Jun-21 22:00N 38°45' E 001°26'0 0.0
2017-Jun-21 21:30N 38°45' E 001°26'0 0.0
2017-Jun-21 21:00N 38°45' E 001°26'0 0.0
2017-Jun-21 20:29N 38°45' E 001°26'0 0.0
2017-Jun-21 19:47N 38°45' E 001°26'0 0.0
2017-Jun-21 19:30N 38°45' E 001°26'0 0.0
2017-Jun-21 19:00N 38°45' E 001°26'0 0.0
2017-Jun-21 18:15N 38°45' E 001°26'0 0.0
2017-Jun-21 17:48N 38°45' E 001°26'0 0.0
2017-Jun-21 17:28N 38°45' E 001°26'0 0.0
2017-Jun-21 16:57N 38°45' E 001°26'0 0.0
2017-Jun-21 16:30N 38°45' E 001°26'0 0.0
2017-Jun-21 16:00N 38°45' E 001°26'0 0.0
2017-Jun-21 15:20N 38°45' E 001°26'0 0.0
2017-Jun-21 15:00N 38°45' E 001°26'0 0.0
2017-Jun-21 14:29N 38°45' E 001°26'0 0.0
2017-Jun-21 13:30N 38°45' E 001°26'0 0.0
2017-Jun-21 13:00N 38°45' E 001°26'0 0.0
2017-Jun-21 12:30N 38°45' E 001°26'0 0.0
2017-Jun-21 11:59N 38°45' E 001°26'0 0.0
2017-Jun-21 11:30N 38°45' E 001°26'0 0.0
2017-Jun-21 10:59N 38°45' E 001°26'0 0.0
2017-Jun-21 10:30N 38°45' E 001°26'0 0.0
2017-Jun-21 10:00N 38°45' E 001°26'0 0.0
2017-Jun-21 09:30N 38°45' E 001°26'0 0.0
2017-Jun-21 08:58N 38°45' E 001°26'0 0.0
2017-Jun-21 08:30N 38°45' E 001°26'0 0.0
2017-Jun-21 08:00N 38°45' E 001°26'0 0.0
2017-Jun-21 07:30N 38°45' E 001°26'0 0.0
2017-Jun-21 07:00N 38°45' E 001°26'0 0.0
2017-Jun-21 06:29N 38°45' E 001°26'0 0.0
2017-Jun-21 06:00N 38°45' E 001°26'0 0.0
2017-Jun-21 05:30N 38°45' E 001°26'0 0.0
2017-Jun-21 05:00N 38°45' E 001°26'0 0.0
2017-Jun-21 04:25N 38°45' E 001°26'0 0.0
2017-Jun-21 03:38N 38°45' E 001°26'0 0.0
2017-Jun-21 03:26N 38°45' E 001°26'0 0.0
2017-Jun-21 03:00N 38°45' E 001°26'0 0.0
2017-Jun-21 02:25N 38°45' E 001°26'0 0.0
2017-Jun-21 02:00N 38°45' E 001°26'0 0.0
2017-Jun-21 01:30N 38°45' E 001°26'0 0.0
2017-Jun-21 00:59N 38°45' E 001°26'0 0.0
2017-Jun-21 00:21N 38°45' E 001°26'0 0.0
2017-Jun-21 00:00N 38°45' E 001°26'0 0.0
2017-Jun-20 23:26N 38°45' E 001°26'0 0.0
2017-Jun-20 23:00N 38°45' E 001°26'0 0.0
2017-Jun-20 22:29N 38°45' E 001°26'0 0.0
2017-Jun-20 22:00N 38°45' E 001°26'0 0.0
2017-Jun-20 21:30N 38°45' E 001°26'0 0.0
2017-Jun-20 20:58N 38°45' E 001°26'0 0.0
2017-Jun-20 20:27N 38°45' E 001°26'0 0.0
2017-Jun-20 19:49N 38°45' E 001°26'0 0.0
2017-Jun-20 19:23N 38°45' E 001°26'0 0.0
2017-Jun-20 18:51N 38°45' E 001°26'0 0.0
2017-Jun-20 18:30N 38°45' E 001°26'0 0.0
2017-Jun-20 18:00N 38°45' E 001°26'0 0.0
2017-Jun-20 17:30N 38°45' E 001°26'0 0.0
2017-Jun-20 17:00N 38°45' E 001°26'0 0.0
2017-Jun-20 16:29N 38°45' E 001°26'0 0.0
2017-Jun-20 16:00N 38°45' E 001°26'0 0.0
2017-Jun-20 15:30N 38°45' E 001°26'0 0.0
2017-Jun-20 14:56N 38°45' E 001°26'0 0.0
2017-Jun-20 14:14N 38°45' E 001°26'0 0.0
2017-Jun-20 13:21N 38°45' E 001°26'0 0.0
2017-Jun-20 13:00N 38°45' E 001°26'0 0.0
2017-Jun-20 12:27N 38°45' E 001°26'0 0.0
2017-Jun-20 12:00N 38°45' E 001°26'0 0.0
2017-Jun-20 11:30N 38°45' E 001°26'0 0.0
2017-Jun-20 11:00N 38°45' E 001°26'0 0.0
2017-Jun-20 10:30N 38°45' E 001°26'0 0.0
2017-Jun-20 09:41N 38°45' E 001°26'0 0.0
2017-Jun-20 09:30N 38°45' E 001°26'0 0.0
2017-Jun-20 08:59N 38°45' E 001°26'0 0.0
2017-Jun-20 08:21N 38°45' E 001°26'6 7.3
2017-Jun-20 07:35N 38°50' E 001°23'0 0.0
2017-Jun-20 07:21N 38°50' E 001°23'0 0.0
2017-Jun-20 06:59N 38°50' E 001°23'0 0.0
2017-Jun-20 06:30N 38°50' E 001°23'0 0.0
2017-Jun-20 06:00N 38°50' E 001°23'0 0.0
2017-Jun-20 05:30N 38°50' E 001°23'0 0.0
2017-Jun-20 05:00N 38°50' E 001°23'0 0.0
2017-Jun-20 04:29N 38°50' E 001°23'0 0.0
2017-Jun-20 03:59N 38°50' E 001°23'0 0.0
2017-Jun-20 03:08N 38°50' E 001°23'0 0.0
2017-Jun-20 02:59N 38°50' E 001°23'0 0.0
2017-Jun-20 02:23N 38°50' E 001°23'0 0.0
2017-Jun-20 01:57N 38°50' E 001°23'0 0.0
2017-Jun-20 01:29N 38°50' E 001°23'0 0.0
2017-Jun-20 01:00N 38°50' E 001°23'0 0.0
2017-Jun-20 00:30N 38°50' E 001°23'0 0.0
2017-Jun-19 23:58N 38°50' E 001°23'0 0.0
2017-Jun-19 23:07N 38°50' E 001°23'0 0.0
2017-Jun-19 22:55N 38°50' E 001°23'0 0.0
2017-Jun-19 22:27N 38°50' E 001°23'0 0.0
2017-Jun-19 22:00N 38°50' E 001°23'0 0.0
2017-Jun-19 20:50N 38°50' E 001°23'0 0.0
2017-Jun-19 20:20N 38°50' E 001°23'0 0.0
2017-Jun-19 19:59N 38°50' E 001°23'0 0.0
2017-Jun-19 19:30N 38°50' E 001°23'0 0.0
2017-Jun-19 19:00N 38°50' E 001°23'0 0.0
2017-Jun-19 18:30N 38°50' E 001°23'0 0.0
2017-Jun-19 17:59N 38°50' E 001°23'0 0.0
2017-Jun-19 17:29N 38°50' E 001°23'0 0.0
2017-Jun-19 16:59N 38°50' E 001°23'0 0.0
2017-Jun-19 16:06N 38°50' E 001°23'0 0.0
2017-Jun-19 15:54N 38°50' E 001°23'0 0.0
2017-Jun-19 15:29N 38°50' E 001°23'0 0.0
2017-Jun-19 14:57N 38°50' E 001°23'0 0.0
2017-Jun-19 14:21N 38°50' E 001°23'0 0.0
2017-Jun-19 13:24N 38°50' E 001°23'0 0.0
2017-Jun-19 12:39N 38°50' E 001°23'0 0.0
2017-Jun-19 11:19N 38°50' E 001°23'0 0.0
2017-Jun-19 10:59N 38°50' E 001°23'0 0.0
2017-Jun-19 09:46N 38°50' E 001°23'0 0.0
2017-Jun-19 09:24N 38°50' E 001°23'0 0.0
2017-Jun-19 08:58N 38°50' E 001°23'0 0.0
2017-Jun-19 08:29N 38°50' E 001°23'0 0.0
2017-Jun-19 07:48N 38°50' E 001°23'0 0.0
2017-Jun-19 07:30N 38°50' E 001°23'0 0.0
2017-Jun-19 07:00N 38°50' E 001°23'0 0.0
2017-Jun-19 06:27N 38°50' E 001°23'0 0.0
2017-Jun-19 05:46N 38°50' E 001°23'0 0.0
2017-Jun-19 05:30N 38°50' E 001°23'0 0.0
2017-Jun-19 04:49N 38°50' E 001°23'0 0.0
2017-Jun-19 04:26N 38°50' E 001°23'0 0.0
2017-Jun-19 03:58N 38°50' E 001°23'0 0.0
2017-Jun-19 03:15N 38°50' E 001°23'0 0.0
2017-Jun-19 02:59N 38°50' E 001°23'0 0.0
2017-Jun-19 02:29N 38°50' E 001°23'0 0.0
2017-Jun-19 02:00N 38°50' E 001°23'0 0.0
2017-Jun-19 01:30N 38°50' E 001°23'0 0.0
2017-Jun-19 00:54N 38°50' E 001°23'0 0.0
2017-Jun-19 00:25N 38°50' E 001°23'0 0.0
2017-Jun-18 23:52N 38°50' E 001°23'0 0.0
2017-Jun-18 23:28N 38°50' E 001°23'0 0.0
2017-Jun-18 22:58N 38°50' E 001°23'0 0.0
2017-Jun-18 22:26N 38°50' E 001°23'0 0.0
2017-Jun-18 22:00N 38°50' E 001°23'0 0.0
2017-Jun-18 21:30N 38°50' E 001°23'0 0.0
2017-Jun-18 21:00N 38°50' E 001°23'0 0.0
2017-Jun-18 20:18N 38°50' E 001°23'0 0.0
2017-Jun-18 19:59N 38°50' E 001°23'0 0.0
2017-Jun-18 19:24N 38°50' E 001°23'0 0.0
2017-Jun-18 18:57N 38°50' E 001°23'0 0.0
2017-Jun-18 18:30N 38°50' E 001°23'0 0.0
2017-Jun-18 17:58N 38°50' E 001°23'0 0.0
2017-Jun-18 17:30N 38°50' E 001°23'0 0.0
2017-Jun-18 17:00N 38°50' E 001°23'0 0.0
2017-Jun-18 16:30N 38°50' E 001°23'0 0.0
2017-Jun-18 16:00N 38°50' E 001°23'0 0.0
2017-Jun-18 15:30N 38°50' E 001°23'0 0.0
2017-Jun-18 15:00N 38°50' E 001°23'0 0.0
2017-Jun-18 14:00N 38°50' E 001°23'0 0.0
2017-Jun-18 13:30N 38°50' E 001°23'0 0.0
2017-Jun-18 13:00N 38°50' E 001°23'0 0.0
2017-Jun-18 12:30N 38°50' E 001°23'0 0.0
2017-Jun-18 11:59N 38°50' E 001°23'0 0.0
2017-Jun-18 11:30N 38°50' E 001°23'0 0.0
2017-Jun-18 10:59N 38°50' E 001°23'0 0.0
2017-Jun-18 10:27N 38°50' E 001°23'0 0.0
2017-Jun-18 10:00N 38°50' E 001°23'0 0.0
2017-Jun-18 09:29N 38°50' E 001°23'0 0.0
2017-Jun-18 09:00N 38°50' E 001°23'0 0.0
2017-Jun-18 08:30N 38°50' E 001°23'0 0.0
2017-Jun-18 08:00N 38°50' E 001°23'0 0.0
2017-Jun-18 07:26N 38°50' E 001°23'0 0.0
2017-Jun-18 06:54N 38°50' E 001°23'0 0.0
2017-Jun-18 06:29N 38°50' E 001°23'0 0.0
2017-Jun-18 05:58N 38°50' E 001°23'0 0.0
2017-Jun-18 05:29N 38°50' E 001°23'0 0.0
2017-Jun-18 05:00N 38°50' E 001°23'0 0.0
2017-Jun-18 04:28N 38°50' E 001°23'0 0.0
2017-Jun-18 04:00N 38°50' E 001°23'0 0.0
2017-Jun-18 03:30N 38°50' E 001°23'0 0.0
2017-Jun-18 03:00N 38°50' E 001°23'0 0.0
2017-Jun-18 02:15N 38°50' E 001°23'0 0.0
2017-Jun-18 02:00N 38°50' E 001°23'0 0.0
2017-Jun-18 01:30N 38°50' E 001°23'0 0.0
2017-Jun-18 00:55N 38°50' E 001°23'0 0.0
2017-Jun-18 00:30N 38°50' E 001°23'0 0.0
2017-Jun-18 00:00N 38°50' E 001°23'0 0.0
2017-Jun-17 23:30N 38°50' E 001°23'0 0.0
2017-Jun-17 23:00N 38°50' E 001°23'0 0.0
2017-Jun-17 22:30N 38°50' E 001°23'0 0.0
2017-Jun-17 21:59N 38°50' E 001°23'0 0.0
2017-Jun-17 21:30N 38°50' E 001°23'0 0.0
2017-Jun-17 21:00N 38°50' E 001°23'0 0.0
2017-Jun-17 20:27N 38°50' E 001°23'0 0.0
2017-Jun-17 20:00N 38°50' E 001°23'0 0.0
2017-Jun-17 19:30N 38°50' E 001°23'0 0.0
2017-Jun-17 19:00N 38°50' E 001°23'5 5.7
2017-Jun-17 18:02N 38°45' E 001°26'0 1.6
2017-Jun-17 18:00N 38°45' E 001°26'0 0.0
2017-Jun-17 17:30N 38°45' E 001°26'0 0.0
2017-Jun-17 17:00N 38°45' E 001°26'0 0.0
2017-Jun-17 16:28N 38°45' E 001°26'0 0.0
2017-Jun-17 16:00N 38°45' E 001°26'0 0.0
2017-Jun-17 15:29N 38°45' E 001°26'0 0.0
2017-Jun-17 15:00N 38°45' E 001°26'0 0.0
2017-Jun-17 14:23N 38°45' E 001°26'0 0.0
2017-Jun-17 10:17N 38°45' E 001°26'0 0.0
2017-Jun-17 09:52N 38°45' E 001°26'0 0.0
2017-Jun-17 09:27N 38°45' E 001°26'0 0.0
2017-Jun-17 07:54N 38°45' E 001°26'2 5.5
2017-Jun-17 07:28N 38°47' E 001°24'3 6.1
2017-Jun-17 07:00N 38°50' E 001°23'0 0.6
2017-Jun-17 06:30N 38°50' E 001°23'0 0.0
2017-Jun-17 06:00N 38°50' E 001°23'0 0.0
2017-Jun-17 02:32N 38°50' E 001°23'0 0.0
2017-Jun-17 02:26N 38°50' E 001°23'0 0.0
2017-Jun-17 02:00N 38°50' E 001°23'0 0.0
2017-Jun-16 22:10N 38°50' E 001°23'0 0.0
2017-Jun-16 21:45N 38°50' E 001°23'0 0.0
2017-Jun-16 21:30N 38°50' E 001°23'0 0.0
2017-Jun-16 21:00N 38°50' E 001°23'0 0.0
2017-Jun-16 20:29N 38°50' E 001°23'0 0.0
2017-Jun-16 19:12N 38°50' E 001°23'0 0.1
2017-Jun-16 18:59N 38°50' E 001°23'0 0.0
2017-Jun-16 18:24N 38°50' E 001°23'0 0.0
2017-Jun-16 17:59N 38°50' E 001°23'0 0.0
2017-Jun-16 17:30N 38°50' E 001°23'0 0.0
2017-Jun-16 16:51N 38°50' E 001°23'0 0.0
2017-Jun-16 16:30N 38°50' E 001°23'0 0.0
2017-Jun-16 15:59N 38°50' E 001°23'0 0.0
2017-Jun-16 15:27N 38°50' E 001°23'0 0.0
2017-Jun-16 13:40N 38°50' E 001°23'0 0.0
2017-Jun-16 13:04N 38°50' E 001°23'0 0.0
2017-Jun-16 12:42N 38°50' E 001°23'0 0.0
2017-Jun-16 12:29N 38°50' E 001°23'0 0.0
2017-Jun-16 11:54N 38°50' E 001°23'0 0.0
2017-Jun-16 11:25N 38°50' E 001°23'0 0.0
2017-Jun-16 11:00N 38°50' E 001°23'0 0.0
2017-Jun-16 10:27N 38°50' E 001°23'0 0.0
2017-Jun-16 10:00N 38°50' E 001°23'0 0.0
2017-Jun-16 09:30N 38°50' E 001°23'0 0.0
2017-Jun-16 09:00N 38°50' E 001°23'0 0.0
2017-Jun-16 08:30N 38°50' E 001°23'0 0.9
2017-Jun-16 08:00N 38°50' E 001°23'3 0.8
2017-Jun-16 03:35N 38°52' E 001°19'0 0.0
2017-Jun-16 03:12N 38°52' E 001°19'0 0.0
2017-Jun-16 02:47N 38°52' E 001°19'0 0.0
2017-Jun-16 02:30N 38°52' E 001°19'0 0.0
2017-Jun-15 22:53N 38°52' E 001°19'0 0.0
2017-Jun-15 22:28N 38°52' E 001°19'  

Dump ship's entire track history